Time;durP1;ratioP1;P1;durP2;ratioP2;P2;SDS_P1;SDS_P2;PMS_P1;PMS_P2;Temp;Humidity;BMP_temperature;BMP_pressure;BME280_temperature;BME280_humidity;BME280_pressure;Samples;Min_cycle;Max_cycle;Signal;HPM_P1;HPM_P2
2023/12/25 00:02:06;;;;;;;5.45;0.65;;;11.40;99.90;;;;;;5094494;28;20047;-60
2023/12/25 00:04:32;;;;;;;6.40;0.75;;;11.40;99.90;;;;;;5094263;28;20040;-61
2023/12/25 00:06:57;;;;;;;6.10;0.80;;;11.50;99.90;;;;;;5094882;28;20051;-60
2023/12/25 00:09:23;;;;;;;7.93;0.93;;;11.50;99.90;;;;;;5094789;28;20048;-60
2023/12/25 00:11:49;;;;;;;7.60;1.02;;;11.50;99.90;;;;;;5094283;28;20036;-60
2023/12/25 00:14:15;;;;;;;3.83;0.97;;;11.50;99.90;;;;;;5094360;28;20058;-61
2023/12/25 00:16:41;;;;;;;7.83;0.90;;;11.50;99.90;;;;;;5094290;28;20047;-61
2023/12/25 00:19:07;;;;;;;3.17;0.65;;;11.50;99.90;;;;;;5093127;28;20142;-60
2023/12/25 00:21:33;;;;;;;;;;;11.50;99.90;;;;;;5094781;28;20498;-60
2023/12/25 00:23:59;;;;;;;4.32;0.98;;;11.50;99.90;;;;;;5093942;28;19920;-60
2023/12/25 00:26:24;;;;;;;9.83;0.80;;;11.40;99.90;;;;;;5093721;28;20062;-60
2023/12/25 00:28:50;;;;;;;6.63;0.80;;;11.40;99.90;;;;;;5094344;28;20040;-61
2023/12/25 00:31:16;;;;;;;5.80;0.90;;;11.50;99.90;;;;;;5093976;28;20471;-60
2023/12/25 00:33:41;;;;;;;3.93;0.73;;;11.40;99.90;;;;;;5093977;28;20437;-61
2023/12/25 00:36:07;;;;;;;6.67;0.93;;;11.50;99.90;;;;;;5094118;28;20051;-61
2023/12/25 00:38:33;;;;;;;8.75;0.73;;;11.40;99.90;;;;;;5094184;28;20059;-61
2023/12/25 00:40:59;;;;;;;7.10;1.15;;;11.40;99.90;;;;;;5093889;28;20044;-60
2023/12/25 00:43:24;;;;;;;9.17;1.20;;;11.50;99.90;;;;;;5093705;28;20047;-61
2023/12/25 00:45:50;;;;;;;8.60;0.97;;;11.50;99.90;;;;;;5093795;28;20048;-60
2023/12/25 00:48:16;;;;;;;10.77;1.70;;;11.50;99.90;;;;;;5093633;28;20380;-60
2023/12/25 00:50:41;;;;;;;6.07;0.90;;;11.40;99.90;;;;;;5093830;28;20048;-61
2023/12/25 00:53:07;;;;;;;9.77;1.07;;;11.50;99.90;;;;;;5092666;28;20055;-61
2023/12/25 00:55:33;;;;;;;6.40;1.10;;;11.50;99.90;;;;;;5093756;28;20044;-61
2023/12/25 00:57:58;;;;;;;2.97;0.80;;;11.50;99.90;;;;;;5093709;28;20048;-59
2023/12/25 01:00:24;;;;;;;3.53;0.70;;;11.50;99.90;;;;;;5093637;28;20044;-61
2023/12/25 01:02:50;;;;;;;7.10;1.07;;;11.50;99.90;;;;;;5093260;28;20503;-60
2023/12/25 01:05:15;;;;;;;5.63;1.00;;;11.50;99.90;;;;;;5093999;28;20105;-59
2023/12/25 01:07:41;;;;;;;6.17;0.67;;;11.50;99.90;;;;;;5093944;28;20087;-60
2023/12/25 01:10:07;;;;;;;8.23;0.77;;;11.50;99.90;;;;;;5094101;28;20403;-60
2023/12/25 01:12:33;;;;;;;3.20;0.50;;;11.40;99.90;;;;;;5093781;28;20075;-61
2023/12/25 01:14:58;;;;;;;3.83;0.67;;;11.40;99.90;;;;;;5093558;28;20080;-61
2023/12/25 01:17:24;;;;;;;6.03;0.80;;;11.40;99.90;;;;;;5093430;28;20047;-60
2023/12/25 01:19:51;;;;;;;6.28;0.70;;;11.40;99.90;;;;;;5093295;28;20048;-60
2023/12/25 01:22:16;;;;;;;4.32;0.82;;;11.40;99.90;;;;;;5092422;28;20040;-60
2023/12/25 01:24:42;;;;;;;6.07;0.90;;;11.40;99.90;;;;;;5093481;28;20043;-60
2023/12/25 01:27:08;;;;;;;3.20;0.70;;;11.40;99.90;;;;;;5093486;28;20317;-61
2023/12/25 01:29:34;;;;;;;4.80;0.77;;;11.40;99.90;;;;;;5093235;28;20040;-61
2023/12/25 01:32:00;;;;;;;2.87;0.57;;;11.30;99.90;;;;;;5093391;28;20043;-60
2023/12/25 01:34:25;;;;;;;6.23;1.20;;;11.30;99.90;;;;;;5093184;28;20148;-61
2023/12/25 01:36:51;;;;;;;5.67;1.00;;;11.30;99.90;;;;;;5093438;28;20505;-62
2023/12/25 01:39:16;;;;;;;10.20;1.30;;;11.30;99.90;;;;;;5097096;28;20379;-60
2023/12/25 01:41:42;;;;;;;5.05;0.60;;;11.30;99.90;;;;;;5097048;28;20048;-60
2023/12/25 01:44:08;;;;;;;4.57;1.10;;;11.30;99.90;;;;;;5097150;28;20055;-61
2023/12/25 01:46:35;;;;;;;8.97;1.07;;;11.30;99.90;;;;;;5096974;28;20093;-60
2023/12/25 01:49:01;;;;;;;6.72;0.50;;;11.30;99.90;;;;;;5097262;28;20129;-60
2023/12/25 01:51:26;;;;;;;6.82;1.00;;;11.20;99.90;;;;;;5097089;28;20074;-61
2023/12/25 01:53:53;;;;;;;2.35;0.40;;;11.20;99.90;;;;;;5097031;28;20048;-60
2023/12/25 01:56:19;;;;;;;7.68;0.90;;;11.20;99.90;;;;;;5096993;28;20048;-59
2023/12/25 01:58:45;;;;;;;5.75;1.05;;;11.20;99.90;;;;;;5096981;28;20058;-61
2023/12/25 02:01:10;;;;;;;6.40;0.80;;;11.10;99.90;;;;;;5096865;28;20461;-61
2023/12/25 02:03:36;;;;;;;8.00;0.53;;;11.10;99.90;;;;;;5096679;28;20408;-61
2023/12/25 02:06:03;;;;;;;6.35;0.98;;;11.10;99.90;;;;;;5096766;28;20047;-61
2023/12/25 02:08:29;;;;;;;;;;;11.10;99.90;;;;;;5097015;28;20052;-60
2023/12/25 02:11:00;;;;;;;5.30;1.42;;;11.10;99.90;;;;;;5096931;28;19924;-61
2023/12/25 02:13:26;;;;;;;3.97;0.82;;;11.10;99.90;;;;;;5096677;28;20407;-61
2023/12/25 02:15:52;;;;;;;3.63;1.00;;;11.10;99.90;;;;;;5096425;28;20044;-60
2023/12/25 02:18:17;;;;;;;6.10;0.90;;;11.00;99.90;;;;;;5096252;28;20123;-61
2023/12/25 02:20:43;;;;;;;2.40;0.70;;;11.00;99.90;;;;;;5096486;28;20131;-61
2023/12/25 02:23:13;;;;;;;7.37;1.30;;;11.00;99.90;;;;;;5096295;28;20044;-60
2023/12/25 02:25:58;;;;;;;5.45;0.85;;;11.00;99.90;;;;;;5095983;28;20294;-61
2023/12/25 02:28:24;;;;;;;3.45;0.47;;;11.00;99.90;;;;;;5096213;28;20510;-60
2023/12/25 02:30:51;;;;;;;4.95;0.88;;;10.90;99.90;;;;;;5096044;28;20051;-60
2023/12/25 02:33:17;;;;;;;;;;;10.90;99.90;;;;;;5096653;28;20048;-61
2023/12/25 02:35:42;;;;;;;6.05;1.17;;;10.90;99.90;;;;;;5096587;28;19920;-61
2023/12/25 02:38:08;;;;;;;3.28;0.68;;;10.90;99.90;;;;;;5096387;28;20044;-60
2023/12/25 02:40:35;;;;;;;3.77;0.80;;;10.90;99.90;;;;;;5095030;28;20533;-61
2023/12/25 02:43:01;;;;;;;4.38;0.80;;;10.90;99.90;;;;;;5095892;28;20091;-60
2023/12/25 02:45:27;;;;;;;5.70;0.85;;;10.90;99.90;;;;;;5096146;28;20083;-60
2023/12/25 02:47:52;;;;;;;7.53;1.00;;;10.90;99.90;;;;;;5094981;28;20472;-61
2023/12/25 02:50:18;;;;;;;5.40;0.90;;;10.90;99.90;;;;;;5095822;28;20039;-61
2023/12/25 02:52:44;;;;;;;3.37;0.57;;;10.80;99.90;;;;;;5095852;28;20035;-60
2023/12/25 02:55:09;;;;;;;9.57;0.65;;;10.90;99.90;;;;;;5095791;28;20106;-62
2023/12/25 02:57:35;;;;;;;5.03;0.83;;;10.80;99.90;;;;;;5095720;28;20087;-61
2023/12/25 03:00:01;;;;;;;7.63;1.00;;;10.80;99.90;;;;;;5096295;28;20044;-60
2023/12/25 03:02:27;;;;;;;5.17;0.90;;;10.80;99.90;;;;;;5096152;28;20056;-61
2023/12/25 03:04:53;;;;;;;;;;;10.80;99.90;;;;;;5096328;28;20048;-61
2023/12/25 03:07:19;;;;;;;5.22;1.00;;;10.80;99.90;;;;;;5094537;28;20010;-60
2023/12/25 03:09:44;;;;;;;2.90;0.53;;;10.80;99.90;;;;;;5095745;28;20059;-61
2023/12/25 03:12:10;;;;;;;3.30;0.47;;;10.80;99.90;;;;;;5095282;28;20047;-60
2023/12/25 03:14:36;;;;;;;7.77;1.03;;;10.80;99.90;;;;;;5095175;28;20127;-61
2023/12/25 03:17:01;;;;;;;9.87;1.57;;;10.80;99.90;;;;;;5094439;28;20047;-60
2023/12/25 03:19:27;;;;;;;6.30;0.97;;;10.80;99.90;;;;;;5095260;28;20055;-61
2023/12/25 03:21:53;;;;;;;5.87;0.93;;;10.80;99.90;;;;;;5095231;28;20043;-60
2023/12/25 03:24:18;;;;;;;5.90;1.07;;;10.80;99.90;;;;;;5095141;28;20046;-60
2023/12/25 03:26:44;;;;;;;5.53;0.77;;;10.80;99.90;;;;;;5094961;28;20064;-60
2023/12/25 03:29:09;;;;;;;7.10;1.00;;;10.80;99.90;;;;;;5095068;28;20131;-60
2023/12/25 03:31:35;;;;;;;5.33;0.60;;;10.80;99.90;;;;;;5095112;28;20089;-61
2023/12/25 03:34:01;;;;;;;7.67;1.20;;;10.80;99.90;;;;;;5095084;28;20093;-61
2023/12/25 03:36:26;;;;;;;3.93;0.63;;;10.80;99.90;;;;;;5093871;28;20058;-61
2023/12/25 03:38:52;;;;;;;4.57;1.23;;;10.80;99.90;;;;;;5094899;28;20131;-61
2023/12/25 03:41:18;;;;;;;4.73;0.93;;;10.80;99.90;;;;;;5094860;28;20044;-60
2023/12/25 03:43:44;;;;;;;8.88;1.80;;;10.80;99.90;;;;;;5094511;28;20082;-61
2023/12/25 03:46:09;;;;;;;8.97;1.23;;;10.80;99.90;;;;;;5094822;28;20044;-60
2023/12/25 03:48:35;;;;;;;5.63;0.90;;;10.80;99.90;;;;;;5094840;28;20166;-60
2023/12/25 03:51:00;;;;;;;3.83;0.50;;;10.80;99.90;;;;;;5094774;28;20090;-61
2023/12/25 03:53:27;;;;;;;4.73;0.73;;;10.80;99.90;;;;;;5094600;28;20044;-61
2023/12/25 03:55:53;;;;;;;7.22;1.33;;;10.70;99.90;;;;;;5094620;28;20051;-61
2023/12/25 03:58:18;;;;;;;5.10;0.73;;;10.70;99.90;;;;;;5094470;28;20048;-61
2023/12/25 04:00:44;;;;;;;7.43;0.90;;;10.70;99.90;;;;;;5094263;28;20051;-60
2023/12/25 04:03:11;;;;;;;5.00;0.70;;;10.70;99.90;;;;;;5094469;28;20040;-61
2023/12/25 04:05:37;;;;;;;;;;;10.60;99.90;;;;;;5094825;28;20366;-61
2023/12/25 04:08:03;;;;;;;4.72;0.90;;;10.60;99.90;;;;;;5094282;28;20042;-60
2023/12/25 04:10:28;;;;;;;7.30;0.90;;;10.60;99.90;;;;;;5094368;28;20052;-61
2023/12/25 04:12:54;;;;;;;5.70;0.80;;;10.60;99.90;;;;;;5093189;28;20052;-61
2023/12/25 04:15:20;;;;;;;8.33;0.80;;;10.60;99.90;;;;;;5094384;28;20044;-61
2023/12/25 04:17:46;;;;;;;4.83;0.80;;;10.60;99.90;;;;;;5093112;28;20052;-61
2023/12/25 04:20:11;;;;;;;6.75;0.90;;;10.60;99.90;;;;;;5094256;28;20097;-61
2023/12/25 04:22:37;;;;;;;4.10;1.33;;;10.60;99.90;;;;;;5094056;28;20044;-62
2023/12/25 04:25:03;;;;;;;4.73;0.70;;;10.60;99.90;;;;;;5093714;28;20509;-60
2023/12/25 04:27:29;;;;;;;3.85;1.10;;;10.60;99.90;;;;;;5094135;28;20079;-60
2023/12/25 04:29:55;;;;;;;6.03;0.80;;;10.60;99.90;;;;;;5094147;28;20118;-61
2023/12/25 04:32:20;;;;;;;5.03;0.90;;;10.60;99.90;;;;;;5094256;28;20040;-61
2023/12/25 04:34:46;;;;;;;3.93;0.77;;;10.60;99.90;;;;;;5093100;28;20498;-60
2023/12/25 04:37:11;;;;;;;6.00;1.10;;;10.60;99.90;;;;;;5093978;28;20055;-61
2023/12/25 04:39:37;;;;;;;8.33;0.80;;;10.50;99.90;;;;;;5093765;28;20044;-61
2023/12/25 04:42:03;;;;;;;5.10;0.90;;;10.50;99.90;;;;;;5093656;28;20467;-60
2023/12/25 04:44:28;;;;;;;5.43;0.80;;;10.40;99.90;;;;;;5093894;28;20127;-60
2023/12/25 04:46:54;;;;;;;3.47;0.70;;;10.40;99.90;;;;;;5093923;28;20043;-61
2023/12/25 04:49:20;;;;;;;5.50;1.07;;;10.30;99.90;;;;;;5093915;28;20170;-60
2023/12/25 04:51:45;;;;;;;6.03;1.20;;;10.30;99.90;;;;;;5092705;28;20048;-60
2023/12/25 04:54:11;;;;;;;3.87;0.50;;;10.30;99.90;;;;;;5093536;28;20044;-60
2023/12/25 04:56:37;;;;;;;6.23;0.77;;;10.30;99.90;;;;;;5093650;28;20059;-60
2023/12/25 04:59:02;;;;;;;3.57;0.50;;;10.40;99.90;;;;;;5093671;28;20055;-60
2023/12/25 05:01:28;;;;;;;8.87;1.07;;;10.40;99.90;;;;;;5094022;28;20411;-61
2023/12/25 05:03:53;;;;;;;7.83;1.03;;;10.40;99.90;;;;;;5093624;28;20036;-60
2023/12/25 05:06:19;;;;;;;5.63;0.80;;;10.40;99.90;;;;;;5093577;28;20040;-60
2023/12/25 05:08:45;;;;;;;4.30;1.00;;;10.40;99.90;;;;;;5093688;28;20125;-60
2023/12/25 05:11:10;;;;;;;4.50;0.80;;;10.40;99.90;;;;;;5093391;28;20487;-59
2023/12/25 05:13:37;;;;;;;6.40;0.70;;;10.40;99.90;;;;;;5096302;28;20387;-60
2023/12/25 05:16:02;;;;;;;4.75;0.65;;;10.40;99.90;;;;;;5098008;28;20185;-61
2023/12/25 05:18:28;;;;;;;5.65;0.63;;;10.40;99.90;;;;;;5096727;28;20467;-60
2023/12/25 05:20:54;;;;;;;6.50;1.43;;;10.40;99.90;;;;;;5097698;28;20083;-60
2023/12/25 05:23:19;;;;;;;8.67;0.70;;;10.40;99.90;;;;;;5097583;28;20478;-60
2023/12/25 05:25:45;;;;;;;6.60;0.93;;;10.40;99.90;;;;;;5097450;28;20475;-60
2023/12/25 05:28:11;;;;;;;3.57;0.50;;;10.40;99.90;;;;;;5097536;28;20055;-60
2023/12/25 05:30:36;;;;;;;8.30;0.83;;;10.40;99.90;;;;;;5097515;28;20043;-60
2023/12/25 05:33:02;;;;;;;3.97;0.60;;;10.40;99.90;;;;;;5097459;28;20047;-61
2023/12/25 05:35:28;;;;;;;3.20;0.40;;;10.40;99.90;;;;;;5097538;28;20048;-59
2023/12/25 05:37:55;;;;;;;7.53;2.25;;;10.30;99.90;;;;;;5097188;28;20505;-61
2023/12/25 05:40:22;;;;;;;6.78;1.08;;;10.30;99.90;;;;;;5096030;28;20044;-60
2023/12/25 05:42:48;;;;;;;5.63;0.80;;;10.30;99.90;;;;;;5096947;28;20079;-60
2023/12/25 05:45:13;;;;;;;6.78;0.85;;;10.30;99.90;;;;;;5097203;28;20504;-61
2023/12/25 05:47:39;;;;;;;5.72;0.70;;;10.30;99.90;;;;;;5097129;28;20188;-60
2023/12/25 05:50:08;;;;;;;12.30;1.50;;;10.30;99.90;;;;;;5097068;28;20489;-60
2023/12/25 05:52:34;;;;;;;5.57;0.80;;;10.30;99.90;;;;;;5096939;28;20051;-60
2023/12/25 05:55:00;;;;;;;5.00;1.00;;;10.30;99.90;;;;;;5096739;28;20410;-60
2023/12/25 05:57:28;;;;;;;4.15;0.90;;;10.30;99.90;;;;;;5097205;28;20056;-61
2023/12/25 05:59:54;;;;;;;7.50;1.13;;;10.20;99.90;;;;;;5097201;28;20101;-60
2023/12/25 06:02:20;;;;;;;6.90;0.73;;;10.20;99.90;;;;;;5095864;28;20040;-61
2023/12/25 06:04:45;;;;;;;7.72;1.30;;;10.20;99.90;;;;;;5096778;28;20058;-61
2023/12/25 06:07:11;;;;;;;4.83;0.70;;;10.20;99.90;;;;;;5096755;28;20048;-60
2023/12/25 06:09:37;;;;;;;6.85;1.00;;;10.20;99.90;;;;;;5096701;28;20043;-61
2023/12/25 06:12:04;;;;;;;3.72;0.88;;;10.10;99.90;;;;;;5095857;28;20109;-60
2023/12/25 06:14:29;;;;;;;5.53;0.75;;;10.10;99.90;;;;;;5096661;28;20062;-60
2023/12/25 06:16:55;;;;;;;4.97;1.37;;;10.10;99.90;;;;;;5096592;28;20044;-60
2023/12/25 06:19:21;;;;;;;6.27;0.87;;;10.00;99.90;;;;;;5096442;28;20048;-60
2023/12/25 06:21:47;;;;;;;5.80;0.70;;;10.10;99.90;;;;;;5095186;28;20048;-60
2023/12/25 06:24:13;;;;;;;4.50;1.33;;;10.10;99.90;;;;;;5095762;28;20122;-60
2023/12/25 06:26:38;;;;;;;7.63;1.23;;;10.00;99.90;;;;;;5096178;28;20109;-60
2023/12/25 06:29:04;;;;;;;6.87;0.80;;;10.00;99.90;;;;;;5096530;28;20054;-61
2023/12/25 06:31:30;;;;;;;9.67;0.90;;;10.00;99.90;;;;;;5096299;28;20051;-60
2023/12/25 06:33:55;;;;;;;7.77;0.97;;;10.00;99.90;;;;;;5096205;28;20128;-60
2023/12/25 06:36:21;;;;;;;3.97;1.10;;;10.00;99.90;;;;;;5096036;28;20048;-60
2023/12/25 06:38:47;;;;;;;7.17;1.00;;;10.00;99.90;;;;;;5095877;28;20044;-60
2023/12/25 06:41:13;;;;;;;7.43;0.85;;;10.00;99.90;;;;;;5096038;28;20490;-59
2023/12/25 06:43:38;;;;;;;8.63;0.90;;;10.00;99.90;;;;;;5096040;28;20079;-60
2023/12/25 06:46:04;;;;;;;2.00;0.47;;;9.90;99.90;;;;;;5096041;28;20127;-59
2023/12/25 06:48:30;;;;;;;8.17;1.20;;;9.90;99.90;;;;;;5095910;28;20123;-59
2023/12/25 06:50:56;;;;;;;7.00;0.87;;;9.90;99.90;;;;;;5094894;28;20044;-60
2023/12/25 06:53:21;;;;;;;10.10;0.70;;;9.90;99.90;;;;;;5095612;28;20051;-59
2023/12/25 06:55:47;;;;;;;6.60;0.60;;;9.90;99.90;;;;;;5096822;28;20043;-60
2023/12/25 06:58:13;;;;;;;6.10;0.68;;;9.90;99.90;;;;;;5096532;28;20475;-60
2023/12/25 07:00:38;;;;;;;5.80;0.70;;;9.90;99.90;;;;;;5095793;28;20131;-60
2023/12/25 07:03:04;;;;;;;5.10;0.80;;;9.90;99.90;;;;;;5095659;28;20482;-60
2023/12/25 07:05:30;;;;;;;4.63;0.77;;;9.90;99.90;;;;;;5095423;28;20438;-60
2023/12/25 07:07:55;;;;;;;7.57;0.60;;;9.90;99.90;;;;;;5095522;28;20047;-59
2023/12/25 07:10:21;;;;;;;7.27;0.97;;;9.90;99.90;;;;;;5095368;28;20440;-60
2023/12/25 07:12:47;;;;;;;6.47;0.80;;;10.00;99.90;;;;;;5095526;28;20036;-60
2023/12/25 07:15:12;;;;;;;5.53;0.60;;;9.90;99.90;;;;;;5095489;28;20185;-61
2023/12/25 07:17:38;;;;;;;6.90;0.90;;;10.00;99.90;;;;;;5095291;28;20048;-60
2023/12/25 07:20:04;;;;;;;5.87;1.03;;;10.00;99.90;;;;;;5095546;28;20051;-60
2023/12/25 07:22:31;;;;;;;7.70;1.02;;;10.00;99.90;;;;;;5095234;28;20047;-60
2023/12/25 07:24:57;;;;;;;5.13;0.90;;;10.00;99.90;;;;;;5077014;28;20058;-59
2023/12/25 07:27:23;;;;;;;5.45;0.90;;;10.00;99.90;;;;;;5095144;28;20513;-60
2023/12/25 07:29:49;;;;;;;5.70;0.83;;;10.00;99.90;;;;;;5095144;28;20048;-60
2023/12/25 07:32:14;;;;;;;7.30;1.30;;;9.90;99.90;;;;;;5095134;28;20071;-60
2023/12/25 07:34:40;;;;;;;7.63;0.77;;;9.90;99.90;;;;;;5094892;28;20479;-60
2023/12/25 07:37:06;;;;;;;10.50;1.23;;;9.90;99.90;;;;;;5094351;28;20381;-59
2023/12/25 07:39:31;;;;;;;7.37;0.80;;;9.90;99.90;;;;;;5094992;28;20036;-60
2023/12/25 07:41:57;;;;;;;9.40;0.83;;;9.90;99.90;;;;;;5094832;28;20093;-60
2023/12/25 07:44:23;;;;;;;10.30;1.23;;;9.90;99.90;;;;;;5095205;28;20039;-60
2023/12/25 07:46:48;;;;;;;11.43;1.53;;;9.80;99.90;;;;;;5094868;28;20040;-59
2023/12/25 07:49:14;;;;;;;7.57;1.13;;;9.80;99.90;;;;;;5094924;28;20044;-60
2023/12/25 07:51:40;;;;;;;5.00;0.90;;;9.80;99.90;;;;;;5094557;28;20499;-60
2023/12/25 07:54:05;;;;;;;7.27;1.70;;;9.80;99.90;;;;;;5094426;28;20086;-60
2023/12/25 07:56:31;;;;;;;5.87;0.80;;;9.80;99.90;;;;;;5093624;28;20071;-60
2023/12/25 07:58:57;;;;;;;4.80;0.60;;;9.80;99.90;;;;;;5094550;28;20055;-60
2023/12/25 08:01:23;;;;;;;5.65;0.68;;;9.80;99.90;;;;;;5093355;28;20048;-60
2023/12/25 08:03:50;;;;;;;7.15;0.70;;;9.70;99.90;;;;;;5094533;28;20119;-60
2023/12/25 08:06:16;;;;;;;;;;;9.70;99.90;;;;;;5094681;28;20127;-60
2023/12/25 08:08:41;;;;;;;5.25;0.60;;;9.70;99.90;;;;;;5094121;28;20113;-59
2023/12/25 08:11:07;;;;;;;3.87;0.67;;;9.60;99.90;;;;;;5094409;28;20093;-59
2023/12/25 08:13:33;;;;;;;5.10;0.60;;;9.60;99.90;;;;;;5094412;28;20032;-60
2023/12/25 08:15:58;;;;;;;2.37;0.40;;;9.50;99.90;;;;;;5093177;28;20483;-60
2023/12/25 08:18:24;;;;;;;4.60;0.43;;;9.50;99.90;;;;;;5094245;28;20074;-60
2023/12/25 08:20:50;;;;;;;3.10;0.50;;;9.40;99.90;;;;;;5094214;28;20040;-60
2023/12/25 08:23:15;;;;;;;4.57;0.60;;;9.40;99.90;;;;;;5094015;28;20502;-59
2023/12/25 08:25:41;;;;;;;3.73;0.70;;;9.30;99.90;;;;;;5093993;28;20442;-60
2023/12/25 08:28:07;;;;;;;3.30;0.37;;;9.30;99.90;;;;;;5094163;28;20036;-60
2023/12/25 08:30:32;;;;;;;2.17;0.40;;;9.30;99.90;;;;;;5094259;28;20047;-60
2023/12/25 08:32:58;;;;;;;4.40;0.60;;;9.20;99.90;;;;;;5094066;28;20040;-60
2023/12/25 08:35:24;;;;;;;3.53;0.50;;;9.20;99.90;;;;;;5094137;28;20055;-60
2023/12/25 08:37:50;;;;;;;4.27;0.53;;;9.20;99.90;;;;;;5093869;28;20048;-60
2023/12/25 08:40:15;;;;;;;4.30;0.40;;;9.20;99.90;;;;;;5094200;28;20051;-60
2023/12/25 08:42:41;;;;;;;3.30;0.50;;;9.20;99.90;;;;;;5093819;28;20444;-60
2023/12/25 08:45:07;;;;;;;5.63;0.73;;;9.20;99.90;;;;;;5093960;28;20169;-60
2023/12/25 08:47:34;;;;;;;4.82;0.70;;;9.10;99.90;;;;;;5093682;28;20040;-60
2023/12/25 08:49:59;;;;;;;3.45;0.57;;;9.10;99.90;;;;;;5093668;28;20432;-59
2023/12/25 08:52:25;;;;;;;6.47;0.97;;;9.10;99.90;;;;;;5093715;28;20174;-59
2023/12/25 08:54:51;;;;;;;6.07;1.03;;;9.10;99.90;;;;;;5093907;28;20481;-59
2023/12/25 08:57:17;;;;;;;4.87;0.93;;;9.10;99.90;;;;;;5093698;28;20052;-60
2023/12/25 08:59:43;;;;;;;3.90;0.80;;;9.10;99.90;;;;;;5093691;28;20044;-60
2023/12/25 09:02:09;;;;;;;5.15;0.77;;;9.10;99.90;;;;;;5093633;28;20048;-60
2023/12/25 09:04:35;;;;;;;6.33;0.87;;;9.10;99.90;;;;;;5093513;28;20136;-59
2023/12/25 09:07:00;;;;;;;3.25;0.70;;;9.10;99.90;;;;;;5093610;28;20088;-59
2023/12/25 09:09:26;;;;;;;3.07;0.40;;;9.10;99.90;;;;;;5093946;28;20429;-60
2023/12/25 09:11:52;;;;;;;6.20;1.10;;;9.10;99.90;;;;;;5093668;28;20040;-60
2023/12/25 09:14:20;;;;;;;6.57;0.50;;;9.10;99.90;;;;;;5093496;28;20043;-59
2023/12/25 09:16:46;;;;;;;4.55;0.80;;;9.10;99.90;;;;;;5093536;28;20052;-59
2023/12/25 09:19:11;;;;;;;3.03;0.57;;;9.10;99.90;;;;;;5093419;28;20113;-59
2023/12/25 09:21:38;;;;;;;6.80;0.70;;;9.10;99.90;;;;;;5093326;28;20044;-59
2023/12/25 09:24:04;;;;;;;;;;;9.10;99.90;;;;;;5093894;28;20538;-59
2023/12/25 09:26:30;;;;;;;4.20;0.40;;;9.10;99.90;;;;;;5093563;28;19974;-60
2023/12/25 09:28:56;;;;;;;4.88;0.60;;;9.10;99.90;;;;;;5092333;28;20056;-60
2023/12/25 09:31:22;;;;;;;3.87;0.57;;;9.10;99.90;;;;;;5092280;28;20047;-60
2023/12/25 09:33:47;;;;;;;4.05;0.60;;;9.20;99.90;;;;;;5093414;28;20048;-60
2023/12/25 09:36:13;;;;;;;5.50;1.00;;;9.10;99.90;;;;;;5093202;28;20429;-59
2023/12/25 09:38:40;;;;;;;4.05;0.40;;;9.10;99.90;;;;;;5093416;28;20091;-60
2023/12/25 09:41:11;;;;;;;2.30;0.40;;;9.10;99.90;;;;;;5093714;28;20055;-60
2023/12/25 09:43:43;;;;;;;3.08;0.70;;;9.20;99.90;;;;;;5093464;28;20083;-60
2023/12/25 09:46:12;;;;;;;2.00;0.55;;;9.20;99.90;;;;;;5093323;28;20051;-59
2023/12/25 09:48:38;;;;;;;4.15;0.85;;;9.20;99.90;;;;;;5092948;28;20556;-59
2023/12/25 09:51:07;;;;;;;3.30;0.70;;;9.20;99.90;;;;;;5093363;28;20376;-60
2023/12/25 09:53:33;;;;;;;5.28;0.68;;;9.20;99.90;;;;;;5093210;28;20498;-59
2023/12/25 09:56:00;;;;;;;2.67;0.47;;;9.20;99.90;;;;;;5093199;28;20047;-60
2023/12/25 09:58:27;;;;;;;5.45;0.60;;;9.30;99.90;;;;;;5093563;28;20044;-60
2023/12/25 10:00:57;;;;;;;5.72;0.57;;;9.30;99.90;;;;;;5095646;28;20051;-60
2023/12/25 10:03:26;;;;;;;5.50;0.70;;;9.30;99.90;;;;;;5096383;28;20044;-59
2023/12/25 10:05:51;;;;;;;4.15;0.63;;;9.30;99.90;;;;;;5096815;28;20044;-60
2023/12/25 10:08:17;;;;;;;4.93;0.47;;;9.30;99.90;;;;;;5096836;28;20048;-60
2023/12/25 10:10:45;;;;;;;7.07;0.50;;;9.30;99.90;;;;;;5096763;28;20044;-59
2023/12/25 10:13:11;;;;;;;3.53;0.88;;;9.30;99.90;;;;;;5096547;28;20475;-59
2023/12/25 10:15:37;;;;;;;3.17;0.60;;;9.30;99.90;;;;;;5096684;28;20102;-59
2023/12/25 10:18:05;;;;;;;5.63;0.77;;;9.30;99.90;;;;;;5096267;28;20055;-59
2023/12/25 10:20:31;;;;;;;2.65;0.43;;;9.30;99.90;;;;;;5096286;28;20126;-59
2023/12/25 10:22:57;;;;;;;7.40;1.30;;;9.30;99.90;;;;;;5095181;28;20132;-60
2023/12/25 10:25:28;;;;;;;5.97;0.50;;;9.40;99.90;;;;;;5096425;28;20063;-60
2023/12/25 10:27:54;;;;;;;4.65;0.57;;;9.40;99.90;;;;;;5096532;28;20078;-59
2023/12/25 10:30:22;;;;;;;8.88;0.90;;;9.40;99.90;;;;;;5112010;28;20044;-59
2023/12/25 10:32:48;;;;;;;6.05;0.45;;;9.50;99.90;;;;;;5095998;28;20051;-59
2023/12/25 10:35:15;;;;;;;;;;;9.50;99.90;;;;;;5096900;28;20508;-59
2023/12/25 10:37:42;;;;;;;2.33;0.43;;;9.50;99.90;;;;;;5096189;28;19920;-59
2023/12/25 10:40:23;;;;;;;6.68;0.73;;;9.50;99.90;;;;;;5096110;28;20101;-60
2023/12/25 10:42:54;;;;;;;3.70;0.70;;;9.50;99.90;;;;;;5096066;28;20474;-59
2023/12/25 10:45:27;;;;;;;3.20;0.45;;;9.50;99.90;;;;;;5096125;28;20044;-60
2023/12/25 10:47:59;;;;;;;3.83;0.55;;;9.50;99.90;;;;;;5096406;28;20126;-60
2023/12/25 10:50:33;;;;;;;3.80;0.60;;;9.60;99.90;;;;;;5096270;28;20105;-60
2023/12/25 10:53:01;;;;;;;3.13;0.38;;;9.60;99.90;;;;;;5095836;28;20089;-59
2023/12/25 10:55:43;;;;;;;7.25;0.60;;;9.60;99.90;;;;;;5095728;28;20459;-59
2023/12/25 10:58:11;;;;;;;3.10;0.50;;;9.60;99.90;;;;;;5094677;28;20389;-60
2023/12/25 11:00:42;;;;;;;1.67;0.60;;;9.60;99.90;;;;;;5095786;28;20198;-59
2023/12/25 11:03:12;;;;;;;5.35;0.70;;;9.70;99.90;;;;;;5095748;28;20040;-59
2023/12/25 11:05:39;;;;;;;5.00;0.80;;;9.60;99.90;;;;;;5095758;28;20048;-60
2023/12/25 11:08:05;;;;;;;4.40;0.93;;;9.70;99.90;;;;;;5095581;28;20047;-60
2023/12/25 11:10:31;;;;;;;4.30;0.93;;;9.70;99.90;;;;;;5095241;28;20516;-60
2023/12/25 11:12:57;;;;;;;4.57;0.60;;;9.70;99.90;;;;;;5095459;28;20079;-60
2023/12/25 11:15:24;;;;;;;6.50;0.80;;;9.70;99.90;;;;;;5094530;28;20048;-60
2023/12/25 11:17:50;;;;;;;9.90;1.65;;;9.80;99.90;;;;;;5095537;28;20394;-60
2023/12/25 11:20:16;;;;;;;7.10;0.77;;;9.80;99.90;;;;;;5095451;28;20055;-60
2023/12/25 11:22:44;;;;;;;4.93;0.40;;;9.80;99.90;;;;;;5095159;28;20476;-60
2023/12/25 11:25:20;;;;;;;6.15;1.05;;;9.80;99.90;;;;;;5093930;28;20095;-59
2023/12/25 11:27:55;;;;;;;5.25;0.60;;;9.90;99.90;;;;;;5095280;28;20453;-60
2023/12/25 11:30:23;;;;;;;4.28;0.60;;;9.80;99.90;;;;;;5095183;28;20127;-60
2023/12/25 11:32:50;;;;;;;8.32;0.93;;;9.80;99.90;;;;;;5095092;28;20145;-60
2023/12/25 11:35:28;;;;;;;5.50;1.00;;;9.90;99.90;;;;;;5095326;28;20044;-59
2023/12/25 11:38:19;;;;;;;9.85;2.47;;;9.90;99.90;;;;;;5094194;28;20048;-60
2023/12/25 11:40:51;;;;;;;5.13;0.82;;;9.90;99.90;;;;;;5094792;28;20487;-61
2023/12/25 11:43:20;;;;;;;5.30;0.57;;;9.90;99.90;;;;;;5094596;28;20046;-60
2023/12/25 11:45:50;;;;;;;6.60;1.13;;;9.90;99.90;;;;;;5094883;28;20097;-60
2023/12/25 11:48:16;;;;;;;5.95;1.17;;;9.90;99.90;;;;;;5094958;28;20044;-61
2023/12/25 11:50:45;;;;;;;4.72;1.02;;;9.90;99.90;;;;;;5094833;28;20399;-60
2023/12/25 11:53:39;;;;;;;7.18;0.95;;;9.90;99.90;;;;;;5094653;28;20114;-60
2023/12/25 11:56:07;;;;;;;6.80;0.82;;;9.90;99.90;;;;;;5094648;28;20044;-60
2023/12/25 11:58:33;;;;;;;11.75;1.52;;;9.90;99.90;;;;;;5094723;28;20040;-60
2023/12/25 12:00:59;;;;;;;;;;;9.90;99.90;;;;;;5095098;28;20508;-60
2023/12/25 12:03:24;;;;;;;4.78;0.90;;;9.90;99.90;;;;;;5094428;28;19934;-60
2023/12/25 12:05:51;;;;;;;12.80;1.00;;;9.90;99.90;;;;;;5094525;28;20043;-60
2023/12/25 12:08:17;;;;;;;3.03;0.55;;;9.90;99.90;;;;;;5094525;28;20044;-59
2023/12/25 12:10:42;;;;;;;3.03;0.50;;;10.00;99.90;;;;;;5094222;28;20040;-59
2023/12/25 12:13:08;;;;;;;6.07;1.13;;;10.00;99.90;;;;;;5094445;28;20032;-60
2023/12/25 12:15:33;;;;;;;6.77;0.67;;;10.00;99.90;;;;;;5094263;28;20051;-60
2023/12/25 12:18:00;;;;;;;4.13;0.90;;;10.00;99.90;;;;;;5093349;28;20055;-60
2023/12/25 12:20:25;;;;;;;9.15;1.00;;;10.00;99.90;;;;;;5094227;28;20055;-60
2023/12/25 12:22:53;;;;;;;5.23;0.80;;;10.00;99.90;;;;;;5093786;28;20461;-60
2023/12/25 12:25:19;;;;;;;5.90;0.93;;;10.00;99.90;;;;;;5092596;28;20331;-60
2023/12/25 12:27:46;;;;;;;5.10;1.98;;;10.00;99.90;;;;;;5094286;28;20059;-60
2023/12/25 12:30:12;;;;;;;6.13;1.70;;;10.00;99.90;;;;;;5094164;28;20052;-60
2023/12/25 12:32:40;;;;;;;6.85;1.10;;;10.00;99.90;;;;;;5094010;28;20044;-60
2023/12/25 12:35:07;;;;;;;6.82;1.23;;;10.10;99.90;;;;;;5094001;28;20052;-58
2023/12/25 12:37:34;;;;;;;8.18;1.13;;;10.10;99.90;;;;;;5093939;28;20055;-59
2023/12/25 12:40:04;;;;;;;8.23;1.55;;;10.10;99.90;;;;;;5093934;28;20152;-60
2023/12/25 12:42:34;;;;;;;5.55;1.48;;;10.10;99.90;;;;;;5093861;28;20403;-60
2023/12/25 12:45:03;;;;;;;7.88;1.85;;;10.10;99.90;;;;;;5093979;28;20040;-60
2023/12/25 12:47:32;;;;;;;5.57;1.30;;;10.10;99.90;;;;;;5093914;28;20390;-60
2023/12/25 12:50:00;;;;;;;8.20;1.17;;;10.10;99.90;;;;;;5093700;28;20043;-60